Latest Coastal Weather Observations for Coles Point

IDS60701

Issued at 6:41 pm CDT Thursday 23 March 2017 (issued every 10 minutes, with the page automatically refreshed every 10 minutes)

About coastal observations | Map of coastal stations | Coastal observations for SA | Marine services | Other Formats
Station Details ID: 018191 Name: COLES POINT Lat: -34.37 Lon: 135.37 Height: 28.0 m
Data from the previous 72 hours. | See also: Recent months at Coles Point
Date/Time
CDT
Temp
°C
Wind Pressure Rain since
9am
mm
Weather Cloud Vis
km
Sea
Height
m
Swell
Dir  Spd
kts
Gust
kts
hPa Trend Height
m
Period
s
Dir
23/06:30pm 24.2 ESE 8 11 1015.6 - 0.0 - - - - - - -
23/06:00pm 24.9 ESE 9 13 1015.5 - 0.0 - - - - - - -
23/05:30pm 24.9 E 8 11 1015.3 - 0.0 - - - - - - -
23/05:00pm 26.4 ESE 8 11 1015.2 - 0.0 - - - - - - -
23/04:30pm 26.1 ESE 8 14 1015.1 - 0.0 - - - - - - -
23/04:00pm 26.6 ESE 8 13 1015.0 - 0.0 - - - - - - -
23/03:30pm 25.8 ESE 9 14 1015.3 - 0.0 - - - - - - -
23/03:00pm 25.6 ESE 8 14 1015.6 - 0.0 - - - - - - -
23/02:30pm 26.0 E 9 17 1015.8 - 0.0 - - - - - - -
23/02:00pm 24.8 E 12 18 1015.9 - 0.0 - - - - - - -
23/01:30pm 24.6 ESE 13 19 1016.6 - 0.0 - - - - - - -
23/01:00pm 24.1 E 14 20 1016.8 - 0.0 - - - - - - -
23/12:30pm 23.1 E 14 19 1017.4 - 0.0 - - - - - - -
23/12:00pm 22.6 E 15 20 1017.8 - 0.0 - - - - - - -
23/11:30am 22.7 E 13 18 1018.2 - 0.0 - - - - - - -
23/11:00am 22.2 ESE 14 20 1018.3 - 0.0 - - - - - - -
23/10:30am 21.4 E 15 20 1018.2 - 0.0 - - - - - - -
23/10:00am 21.1 ESE 13 19 1018.2 - 0.0 - - - - - - -
23/09:30am 20.8 ESE 12 16 1018.0 - 0.0 - - - - - - -
23/09:00am 20.1 ESE 10 15 1018.4 - 0.0 - - - - - - -
23/08:30am 19.6 ESE 10 13 1017.9 - 0.0 - - - - - - -
23/08:00am 19.3 E 9 12 1017.5 - 0.0 - - - - - - -
23/07:30am 19.1 E 8 12 1017.6 - 0.0 - - - - - - -
23/07:00am 19.0 ESE 9 13 1017.5 - 0.0 - - - - - - -
23/06:30am 18.9 E 9 13 1017.2 - 0.0 - - - - - - -
23/06:00am 18.6 E 9 13 1016.6 - 0.0 - - - - - - -
23/05:30am 18.5 ESE 10 14 1016.6 - 0.0 - - - - - - -
23/05:00am 18.4 ESE 8 13 1016.7 - 0.0 - - - - - - -
23/04:30am 18.4 ESE 8 12 1016.9 - 0.0 - - - - - - -
23/04:00am 18.3 ESE 11 14 1017.2 - 0.0 - - - - - - -
23/03:30am 18.3 SE 11 14 1017.6 - 0.0 - - - - - - -
23/03:00am 18.4 SE 10 13 1017.9 - 0.0 - - - - - - -
23/02:30am 18.7 ESE 11 13 1018.0 - 0.0 - - - - - - -
23/02:00am 18.7 ESE 9 14 1018.0 - 0.0 - - - - - - -
23/01:30am 18.6 ESE 10 12 1018.3 - 0.0 - - - - - - -
23/01:00am 18.7 SE 10 13 1018.7 - 0.0 - - - - - - -
23/12:30am 18.8 ESE 10 13 1019.0 - 0.0 - - - - - - -
23/12:00am 19.0 SE 10 15 1019.1 - 0.0 - - - - - - -
 
Date/Time
CDT
Temp
°C
Wind Pressure Rain since
9am
mm
Weather Cloud Vis
km
Sea
Height
m
Swell
Dir  Spd
kts
Gust
kts
hPa Trend Height
m
Period
s
Dir
22/11:30pm 19.1 SE 9 13 1019.6 - 0.0 - - - - - - -
22/11:00pm 19.2 SE 9 12 1019.4 - 0.0 - - - - - - -
22/10:30pm 19.3 SE 10 15 1019.2 - 0.0 - - - - - - -
22/10:00pm 19.4 SE 10 15 1019.0 - 0.0 - - - - - - -
22/09:30pm 19.6 ESE 12 17 1018.6 - 0.0 - - - - - - -
22/09:00pm 19.5 ESE 11 14 1018.5 - 0.0 - - - - - - -
22/08:30pm 19.8 SE 10 14 1018.3 - 0.0 - - - - - - -
22/08:00pm 19.7 ESE 12 18 1018.2 - 0.0 - - - - - - -
22/07:30pm 20.0 SE 12 17 1017.6 - 0.0 - - - - - - -
22/07:00pm 20.4 ESE 14 19 1017.2 - 0.0 - - - - - - -
22/06:30pm 21.9 SE 16 23 1017.0 - 0.0 - - - - - - -
22/06:00pm 22.3 ESE 17 23 1016.7 - 0.0 - - - - - - -
22/05:30pm 23.0 SE 16 23 1016.8 - 0.0 - - - - - - -
22/05:00pm 22.9 ESE 15 21 1017.1 - 0.0 - - - - - - -
22/04:30pm 22.7 ESE 15 23 1017.1 - 0.0 - - - - - - -
22/04:00pm 23.9 ESE 17 26 1016.9 - 0.0 - - - - - - -
22/03:51pm 24.1 ESE 15 26 1017.0 - 0.0 - - - - - - -
22/03:30pm 23.9 ESE 17 24 1017.2 - 0.0 - - - - - - -
22/03:00pm 23.0 ESE 17 23 1017.7 - 0.0 - - - - - - -
22/02:30pm 23.9 ESE 15 22 1017.7 - 0.0 - - - - - - -
22/02:00pm 23.0 ESE 17 23 1017.9 - 0.0 - - - - - - -
22/01:30pm 24.4 ESE 16 23 1018.0 - 0.0 - - - - - - -
22/01:00pm 23.4 SE 15 21 1018.3 - 0.0 - - - - - - -
22/12:55pm 22.9 SE 15 26 1018.4 - 0.0 - - - - - - -
22/12:30pm 23.1 SE 15 22 1018.8 - 0.0 - - - - - - -
22/12:00pm 21.4 SE 14 20 1019.2 - 0.0 - - - - - - -
22/11:30am 20.9 SE 13 19 1019.3 - 0.0 - - - - - - -
22/11:00am 20.9 SE 14 19 1019.3 - 0.0 - - - - - - -
22/10:30am 20.4 SE 12 20 1019.1 - 0.0 - - - - - - -
22/10:00am 20.5 ESE 12 17 1019.1 - 0.0 - - - - - - -
22/09:30am 20.4 SE 12 18 1018.7 - 0.0 - - - - - - -
22/09:00am 20.1 SE 10 15 1018.3 - 0.0 - - - - - - -
22/08:30am 19.8 SE 10 17 1017.8 - 0.0 - - - - - - -
22/08:00am 19.3 ESE 10 16 1017.5 - 0.0 - - - - - - -
22/07:30am 18.9 ESE 10 16 1017.2 - 0.0 - - - - - - -
22/07:00am 19.0 ESE 11 16 1016.7 - 0.0 - - - - - - -
22/06:30am 18.8 ESE 13 21 1016.0 - 0.0 - - - - - - -
22/06:00am 18.9 ESE 12 17 1015.5 - 0.0 - - - - - - -
22/05:30am 18.9 ESE 11 16 1015.7 - 0.0 - - - - - - -
22/05:00am 19.0 ESE 13 20 1015.6 - 0.0 - - - - - - -
22/04:30am 19.4 SE 14 20 1015.3 - 0.0 - - - - - - -
22/04:00am 19.3 SE 10 15 1015.4 - 0.0 - - - - - - -
22/03:30am 19.5 SE 15 22 1015.4 - 0.0 - - - - - - -
22/03:00am 19.6 SE 11 16 1015.7 - 0.0 - - - - - - -
22/02:30am 19.6 SE 11 18 1015.6 - 0.0 - - - - - - -
22/02:00am 19.6 SE 11 17 1015.5 - 0.0 - - - - - - -
22/01:30am 19.7 SE 10 16 1015.2 - 0.0 - - - - - - -
22/01:00am 19.4 SE 11 18 1014.5 - 0.0 - - - - - - -
22/12:30am 19.3 SE 8 12 1015.4 - 0.0 - - - - - - -
22/12:00am 18.7 SE 7 11 1015.4 - 0.0 - - - - - - -
 
Date/Time
CDT
Temp
°C
Wind Pressure Rain since
9am
mm
Weather Cloud Vis
km
Sea
Height
m
Swell
Dir  Spd
kts
Gust
kts
hPa Trend Height
m
Period
s
Dir
21/11:30pm 18.7 SE 12 18 1015.2 - 0.0 - - - - - - -
21/11:00pm 18.4 SE 6 7 1015.5 - 0.0 - - - - - - -
21/10:30pm 18.7 SE 8 13 1015.3 - 0.0 - - - - - - -
21/10:00pm 18.8 SE 10 14 1014.9 - 0.0 - - - - - - -
21/09:30pm 19.1 SE 12 16 1014.4 - 0.0 - - - - - - -
21/09:00pm 19.3 SSE 9 13 1014.1 - 0.0 - - - - - - -
21/08:30pm 20.0 SSE 10 14 1013.4 - 0.0 - - - - - - -
21/08:00pm 21.0 SSE 10 16 1013.0 - 0.0 - - - - - - -
21/07:30pm 21.1 S 11 14 1012.6 - 0.0 - - - - - - -
21/07:00pm 21.5 S 10 13 1012.2 - 0.0 - - - - - - -
21/06:30pm 21.6 SSW 12 15 1011.8 - 0.0 - - - - - - -
21/06:00pm 21.8 S 12 15 1011.5 - 0.0 - - - - - - -
21/05:30pm 22.4 S 12 15 1011.2 - 0.0 - - - - - - -
21/05:00pm 22.9 S 14 18 1011.0 - 0.0 - - - - - - -
21/04:30pm 23.4 SSW 13 18 1011.0 - 0.0 - - - - - - -
21/04:00pm 23.5 SW 10 13 1011.1 - 0.0 - - - - - - -
21/03:30pm 22.2 SW 6 9 1011.2 - 0.0 - - - - - - -
21/03:00pm 22.4 SW 6 8 1011.4 - 0.0 - - - - - - -
21/02:30pm 22.6 WSW 5 7 1011.7 - 0.0 - - - - - - -
21/02:00pm 22.7 WSW 6 9 1011.8 - 0.0 - - - - - - -
21/01:30pm 22.5 W 4 6 1011.9 - 0.0 - - - - - - -
21/01:00pm 21.4 WNW 7 9 1012.0 - 0.0 - - - - - - -
21/12:30pm 22.2 NW 9 11 1012.1 - 0.0 - - - - - - -
21/12:00pm 20.2 NW 7 9 1012.1 - 0.0 - - - - - - -
21/11:30am 19.9 NW 9 11 1012.1 - 0.0 - - - - - - -
21/11:00am 20.8 NW 10 12 1011.7 - 0.0 - - - - - - -
21/10:30am 19.8 NNW 10 13 1011.5 - 0.0 - - - - - - -
21/10:00am 19.3 NNW 9 11 1011.5 - 0.0 - - - - - - -
21/09:30am 19.3 NNW 8 10 1011.1 - 0.0 - - - - - - -
21/09:00am 18.8 NNW 8 10 1010.7 - 0.0 - - - - - - -
21/08:30am 18.7 NNW 5 7 1010.6 - 0.0 - - - - - - -
21/08:00am 18.4 NNW 6 8 1010.1 - 0.0 - - - - - - -
21/07:30am 17.6 N 4 6 1009.8 - 0.0 - - - - - - -
21/07:00am 18.3 NNW 3 4 1009.6 - 0.0 - - - - - - -
21/06:30am 18.3 NNW 5 6 1009.2 - 0.0 - - - - - - -
21/06:00am 18.4 NNW 5 7 1009.2 - 0.0 - - - - - - -
21/05:30am 18.4 NW 5 7 1009.1 - 0.0 - - - - - - -
21/05:00am 18.1 NW 6 8 1009.0 - 0.0 - - - - - - -
21/04:30am 18.3 NW 5 6 1009.1 - 0.0 - - - - - - -
21/04:00am 18.3 NW 6 9 1009.1 - 0.0 - - - - - - -
21/03:30am 18.3 WNW 6 7 1009.1 - 0.0 - - - - - - -
21/03:00am 18.2 NW 4 5 1009.4 - 0.0 - - - - - - -
21/02:30am 18.1 NW 5 7 1009.3 - 0.0 - - - - - - -
21/02:00am 18.3 WNW 7 9 1009.5 - 0.0 - - - - - - -
21/01:30am 18.2 NW 7 9 1009.7 - 0.0 - - - - - - -
21/01:00am 18.2 NW 7 10 1009.9 - 0.0 - - - - - - -
21/12:30am 18.2 NW 7 9 1009.8 - 0.0 - - - - - - -
21/12:00am 18.4 NW 9 11 1009.9 - 0.0 - - - - - - -
 
Date/Time
CDT
Temp
°C
Wind Pressure Rain since
9am
mm
Weather Cloud Vis
km
Sea
Height
m
Swell
Dir  Spd
kts
Gust
kts
hPa Trend Height
m
Period
s
Dir
20/11:30pm 18.5 NW 7 8 1010.0 - 0.0 - - - - - - -
20/11:00pm 18.6 NW 7 11 1010.4 - 0.0 - - - - - - -
20/10:30pm 18.6 NW 7 10 1010.6 - 0.0 - - - - - - -
20/10:00pm 18.8 NNW 9 16 1010.2 - 0.0 - - - - - - -
20/09:30pm 18.9 NNW 13 17 1010.2 - 0.0 - - - - - - -
20/09:00pm 19.2 NNW 10 13 1009.7 - 0.0 - - - - - - -
20/08:30pm 19.3 NNW 8 11 1009.9 - 0.0 - - - - - - -
20/08:00pm 20.8 NNW 5 7 1009.1 - 0.0 - - - - - - -
20/07:30pm 21.5 NW 6 8 1009.1 - 0.0 - - - - - - -
20/07:00pm 22.3 NNW 5 7 1009.0 - 0.0 - - - - - - -

Other Formats:

Comma delimited format used in spreadsheet applications
http://www.bom.gov.au/fwo/IDS60701/IDS60701.94658.axf

JavaScript Object Notation format (JSON) in row-major order
http://www.bom.gov.au/fwo/IDS60701/IDS60701.94658.json